createdAt,value
2023-02-25T00:02:11.180Z,9.50
2023-02-25T00:04:56.654Z,9.50
2023-02-25T00:07:28.652Z,9.50
2023-02-25T00:09:57.104Z,9.50
2023-02-25T00:12:25.565Z,9.40
2023-02-25T00:14:53.963Z,9.40
2023-02-25T00:17:22.380Z,9.40
2023-02-25T00:19:50.825Z,9.30
2023-02-25T00:22:19.986Z,9.40
2023-02-25T00:24:56.586Z,9.40
2023-02-25T00:27:26.247Z,9.50
2023-02-25T00:29:55.618Z,9.40
2023-02-25T00:32:25.103Z,9.40
2023-02-25T00:34:53.967Z,9.50
2023-02-25T00:37:22.420Z,9.40
2023-02-25T00:39:52.315Z,9.50
2023-02-25T00:42:21.067Z,9.50
2023-02-25T00:44:51.845Z,9.50
2023-02-25T00:47:21.578Z,9.40
2023-02-25T00:49:50.629Z,9.40
2023-02-25T00:52:19.822Z,9.40
2023-02-25T00:54:48.294Z,9.40
2023-02-25T00:57:18.217Z,9.40
2023-02-25T00:59:46.750Z,9.30
2023-02-25T01:02:15.459Z,9.30
2023-02-25T01:04:44.293Z,9.20
2023-02-25T01:07:13.121Z,9.10
2023-02-25T01:09:41.722Z,9.00
2023-02-25T01:12:10.568Z,8.90
2023-02-25T01:15:06.668Z,8.80
2023-02-25T01:18:09.194Z,8.80
2023-02-25T01:20:40.902Z,8.90
2023-02-25T01:23:09.529Z,8.90
2023-02-25T01:25:41.999Z,9.00
2023-02-25T01:28:10.495Z,9.00
2023-02-25T01:30:40.452Z,9.00
2023-02-25T01:33:18.083Z,8.90
2023-02-25T01:35:46.498Z,8.90
2023-02-25T01:38:24.190Z,8.80
2023-02-25T01:40:59.311Z,8.90
2023-02-25T01:43:29.170Z,9.00
2023-02-25T01:45:59.114Z,9.00
2023-02-25T01:48:32.485Z,9.00
2023-02-25T01:51:07.136Z,8.90
2023-02-25T01:53:41.458Z,8.80
2023-02-25T01:56:15.666Z,8.50
2023-02-25T01:58:45.565Z,8.20
2023-02-25T02:01:21.334Z,7.90
2023-02-25T02:03:52.384Z,7.60
2023-02-25T02:06:28.153Z,7.40
2023-02-25T02:08:57.690Z,7.10
2023-02-25T02:11:26.117Z,6.90
2023-02-25T02:14:15.247Z,6.70
2023-02-25T02:17:21.947Z,6.60
2023-02-25T02:20:14.183Z,6.50
2023-02-25T02:23:00.238Z,6.50
2023-02-25T02:26:12.588Z,6.50
2023-02-25T02:29:32.458Z,6.30
2023-02-25T02:32:15.410Z,6.30
2023-02-25T02:35:19.085Z,6.20
2023-02-25T02:37:59.806Z,6.20
2023-02-25T02:40:44.680Z,6.20
2023-02-25T02:43:30.022Z,6.20
2023-02-25T02:46:05.946Z,6.10
2023-02-25T02:48:44.691Z,6.10
2023-02-25T02:51:20.835Z,6.00
2023-02-25T02:53:56.470Z,5.90
2023-02-25T02:56:28.917Z,5.90
2023-02-25T02:59:13.030Z,6.00
2023-02-25T03:01:51.500Z,6.00
2023-02-25T03:04:29.106Z,6.00
2023-02-25T03:07:05.721Z,6.00
2023-02-25T03:09:41.068Z,6.00
2023-02-25T03:12:09.779Z,5.80
2023-02-25T03:14:39.138Z,5.70
2023-02-25T03:17:14.144Z,5.70
2023-02-25T03:19:51.948Z,5.70
2023-02-25T03:22:27.778Z,5.70
2023-02-25T03:25:06.075Z,5.60
2023-02-25T03:27:40.754Z,5.50
2023-02-25T03:30:19.871Z,5.60
2023-02-25T03:33:27.809Z,5.50
2023-02-25T03:36:03.177Z,5.40
2023-02-25T03:38:34.450Z,5.40
2023-02-25T03:41:06.139Z,5.30
2023-02-25T03:43:42.251Z,5.30
2023-02-25T03:46:11.760Z,5.20
2023-02-25T03:48:42.430Z,5.20
2023-02-25T03:51:16.476Z,5.30
2023-02-25T03:53:45.167Z,5.20
2023-02-25T03:56:14.374Z,5.10
2023-02-25T03:58:44.458Z,5.10
2023-02-25T04:01:17.853Z,5.10
2023-02-25T04:03:46.460Z,5.00
2023-02-25T04:06:31.934Z,4.90
2023-02-25T04:09:00.565Z,5.00
2023-02-25T04:11:29.145Z,4.90
2023-02-25T04:13:57.601Z,4.90
2023-02-25T04:16:26.491Z,4.80
2023-02-25T04:18:55.000Z,4.80
2023-02-25T04:21:31.663Z,4.80
2023-02-25T04:24:01.140Z,4.70
2023-02-25T04:26:30.167Z,4.70
2023-02-25T04:28:58.603Z,4.70
2023-02-25T04:31:27.390Z,4.70
2023-02-25T04:33:58.181Z,4.60
2023-02-25T04:36:31.448Z,4.70
2023-02-25T04:39:02.709Z,4.60
2023-02-25T04:41:56.395Z,4.60
2023-02-25T04:44:25.069Z,4.40
2023-02-25T04:47:24.290Z,4.40
2023-02-25T04:49:52.781Z,4.40
2023-02-25T04:52:22.779Z,4.40
2023-02-25T04:54:51.452Z,4.40
2023-02-25T04:57:19.952Z,4.40
2023-02-25T04:59:48.599Z,4.50
2023-02-25T05:02:17.199Z,4.40
2023-02-25T05:04:45.894Z,4.40
2023-02-25T05:07:14.465Z,4.40
2023-02-25T05:09:45.122Z,4.30
2023-02-25T05:12:13.593Z,4.30
2023-02-25T05:14:45.988Z,4.30
2023-02-25T05:17:15.802Z,4.20
2023-02-25T05:19:44.406Z,4.10
2023-02-25T05:22:12.858Z,4.10
2023-02-25T05:24:41.381Z,4.10
2023-02-25T05:27:11.152Z,4.10
2023-02-25T05:29:39.744Z,4.20
2023-02-25T05:32:08.976Z,4.30
2023-02-25T05:34:37.615Z,4.40
2023-02-25T05:37:11.828Z,4.40
2023-02-25T05:39:40.278Z,4.50
2023-02-25T05:42:10.121Z,4.60
2023-02-25T05:44:38.691Z,4.70
2023-02-25T05:47:08.473Z,4.80
2023-02-25T05:49:36.970Z,4.80
2023-02-25T05:52:05.429Z,4.90
2023-02-25T05:54:33.958Z,4.90
2023-02-25T05:57:02.450Z,5.00
2023-02-25T05:59:32.728Z,5.00
2023-02-25T06:02:01.656Z,5.10
2023-02-25T06:04:30.153Z,5.10
2023-02-25T06:06:58.712Z,5.20
2023-02-25T06:09:27.306Z,5.30
2023-02-25T06:11:55.778Z,5.30
2023-02-25T06:14:24.371Z,5.40
2023-02-25T06:16:56.867Z,5.50
2023-02-25T06:19:27.431Z,5.60
2023-02-25T06:21:56.740Z,5.70
2023-02-25T06:24:25.963Z,5.70
2023-02-25T06:26:54.465Z,5.80
2023-02-25T06:29:22.921Z,5.80
2023-02-25T06:31:53.346Z,6.00
2023-02-25T06:34:22.209Z,6.10
2023-02-25T06:36:50.756Z,6.30
2023-02-25T06:39:19.182Z,6.50
2023-02-25T06:41:49.457Z,6.60
2023-02-25T06:44:17.951Z,6.80
2023-02-25T06:47:27.278Z,7.00
2023-02-25T06:49:57.240Z,7.20
2023-02-25T06:52:26.066Z,7.60
2023-02-25T06:54:54.592Z,7.90
2023-02-25T06:57:23.000Z,8.00
2023-02-25T06:59:53.272Z,8.00
2023-02-25T07:02:21.760Z,7.90
2023-02-25T07:04:54.473Z,7.80
2023-02-25T07:07:25.223Z,7.70
2023-02-25T07:09:53.672Z,7.70
2023-02-25T07:12:22.268Z,7.60
2023-02-25T07:14:50.824Z,7.60
2023-02-25T07:17:19.651Z,7.70
2023-02-25T07:19:48.183Z,7.70
2023-02-25T07:22:19.857Z,7.70
2023-02-25T07:24:48.338Z,7.70
2023-02-25T07:27:16.879Z,7.80
2023-02-25T07:29:45.373Z,7.90
2023-02-25T07:32:14.002Z,8.00
2023-02-25T07:34:42.800Z,8.00
2023-02-25T07:37:12.943Z,8.10
2023-02-25T07:39:42.844Z,8.10
2023-02-25T07:42:11.332Z,8.10
2023-02-25T07:44:47.688Z,8.10
2023-02-25T07:47:16.128Z,8.10
2023-02-25T07:49:44.578Z,8.20
2023-02-25T07:52:13.089Z,8.40
2023-02-25T07:54:43.309Z,8.60
2023-02-25T07:57:12.213Z,8.80
2023-02-25T07:59:40.873Z,9.00
2023-02-25T08:02:11.782Z,9.30
2023-02-25T08:04:40.291Z,9.50
2023-02-25T08:07:08.849Z,9.70
2023-02-25T08:09:37.260Z,9.80
2023-02-25T08:12:07.166Z,10.20
2023-02-25T08:14:35.762Z,10.60
2023-02-25T08:17:04.323Z,11.00
2023-02-25T08:19:32.722Z,11.30
2023-02-25T08:22:01.448Z,11.50
2023-02-25T08:24:29.918Z,11.70
2023-02-25T08:26:58.367Z,11.80
2023-02-25T08:29:28.253Z,12.00
2023-02-25T08:31:56.998Z,12.10
2023-02-25T08:34:26.039Z,12.20
2023-02-25T08:36:54.530Z,12.30
2023-02-25T08:39:23.067Z,12.30
2023-02-25T08:41:51.632Z,12.40
2023-02-25T08:44:20.989Z,12.50
2023-02-25T08:46:50.868Z,12.50
2023-02-25T08:49:19.529Z,12.60
2023-02-25T08:51:50.948Z,12.60
2023-02-25T08:54:19.437Z,12.70
2023-02-25T08:56:50.874Z,12.70
2023-02-25T08:59:19.760Z,12.80
2023-02-25T09:01:49.305Z,12.80
2023-02-25T09:04:22.889Z,12.80
2023-02-25T09:06:54.215Z,12.80
2023-02-25T09:09:26.385Z,12.80
2023-02-25T09:11:56.094Z,12.70
2023-02-25T09:14:24.642Z,12.60
2023-02-25T09:16:53.258Z,12.60
2023-02-25T09:19:47.802Z,12.50
2023-02-25T09:22:16.241Z,12.50
2023-02-25T09:25:34.114Z,12.50
2023-02-25T09:28:02.616Z,12.50
2023-02-25T09:30:31.057Z,12.50
2023-02-25T09:32:59.650Z,12.60
2023-02-25T09:35:29.742Z,12.60
2023-02-25T09:37:59.115Z,12.60
2023-02-25T09:40:27.900Z,12.60
2023-02-25T09:43:10.117Z,12.60
2023-02-25T09:45:39.048Z,12.60
2023-02-25T09:48:19.607Z,12.60
2023-02-25T09:50:54.723Z,12.70
2023-02-25T09:53:32.386Z,12.70
2023-02-25T09:56:02.547Z,12.80
2023-02-25T09:58:51.608Z,12.80
2023-02-25T10:01:34.489Z,12.80
2023-02-25T10:04:10.031Z,12.80
2023-02-25T10:06:44.456Z,12.80
2023-02-25T10:09:25.271Z,12.80
2023-02-25T10:12:06.397Z,12.80
2023-02-25T10:15:09.577Z,12.80
2023-02-25T10:17:52.119Z,12.90
2023-02-25T10:20:44.878Z,12.90
2023-02-25T10:23:30.986Z,13.00
2023-02-25T10:26:07.354Z,13.00
2023-02-25T10:28:37.387Z,13.00
2023-02-25T10:31:09.292Z,13.10
2023-02-25T10:33:41.103Z,13.20
2023-02-25T10:36:16.127Z,13.20
2023-02-25T10:39:02.101Z,13.30
2023-02-25T10:41:30.819Z,13.30
2023-02-25T10:43:59.572Z,13.30
2023-02-25T10:46:35.601Z,13.30
2023-02-25T10:49:16.652Z,13.30
2023-02-25T10:52:06.326Z,13.40
2023-02-25T10:54:46.881Z,13.40
2023-02-25T10:57:19.195Z,13.40
2023-02-25T11:00:02.418Z,13.40
2023-02-25T11:02:36.864Z,13.50
2023-02-25T11:05:05.900Z,13.50
2023-02-25T11:07:42.330Z,13.50
2023-02-25T11:10:35.138Z,13.60
2023-02-25T11:13:06.117Z,13.70
2023-02-25T11:15:45.165Z,13.70
2023-02-25T11:18:23.540Z,13.80
2023-02-25T11:20:56.202Z,13.80
2023-02-25T11:23:32.268Z,13.90
2023-02-25T11:26:02.594Z,13.90
2023-02-25T11:28:39.386Z,13.90
2023-02-25T11:31:16.434Z,14.00
2023-02-25T11:33:51.657Z,14.00
2023-02-25T11:36:24.802Z,14.10
2023-02-25T11:39:22.038Z,14.20
2023-02-25T11:41:55.457Z,14.20
2023-02-25T11:44:29.966Z,14.30
2023-02-25T11:47:05.483Z,14.30
2023-02-25T11:50:13.659Z,14.30
2023-02-25T11:52:47.706Z,14.40
2023-02-25T11:55:36.607Z,14.50
2023-02-25T11:58:23.984Z,14.50
2023-02-25T12:01:01.193Z,14.60
2023-02-25T12:04:01.388Z,14.60
2023-02-25T12:06:51.545Z,14.60
2023-02-25T12:10:33.649Z,14.70
2023-02-25T12:13:42.678Z,14.60
2023-02-25T12:17:12.720Z,14.60
2023-02-25T12:20:19.567Z,14.60
2023-02-25T12:23:45.199Z,14.60
2023-02-25T12:26:22.485Z,14.60
2023-02-25T12:29:14.091Z,14.70
2023-02-25T12:32:26.703Z,14.80
2023-02-25T12:35:54.503Z,14.80
2023-02-25T12:39:06.116Z,14.80
2023-02-25T12:41:41.973Z,14.80
2023-02-25T12:45:22.945Z,14.90
2023-02-25T12:48:44.690Z,14.90
2023-02-25T12:51:46.877Z,15.00
2023-02-25T12:54:38.908Z,15.00
2023-02-25T12:57:37.624Z,15.00
2023-02-25T13:00:54.099Z,15.00
2023-02-25T13:03:49.477Z,15.10
2023-02-25T13:06:53.194Z,15.20
2023-02-25T13:09:52.839Z,15.20
2023-02-25T13:12:54.321Z,15.20
2023-02-25T13:15:34.053Z,15.20
2023-02-25T13:18:20.209Z,15.10
2023-02-25T13:21:06.767Z,15.10
2023-02-25T13:24:01.281Z,15.10
2023-02-25T13:26:50.119Z,15.10
2023-02-25T13:30:08.261Z,15.10
2023-02-25T13:32:48.524Z,15.10
2023-02-25T13:35:33.593Z,15.00
2023-02-25T13:38:25.004Z,15.00
2023-02-25T13:41:13.180Z,15.00
2023-02-25T13:44:18.446Z,15.00
2023-02-25T13:47:32.680Z,15.00
2023-02-25T13:50:43.015Z,14.90
2023-02-25T13:53:40.025Z,14.90
2023-02-25T13:56:33.157Z,14.80
2023-02-25T13:59:23.446Z,14.70
2023-02-25T14:02:14.756Z,14.70
2023-02-25T14:05:13.242Z,14.70
2023-02-25T14:08:09.041Z,14.70
2023-02-25T14:11:15.628Z,14.80
2023-02-25T14:14:26.080Z,14.80
2023-02-25T14:20:51.427Z,14.80
2023-02-25T14:23:43.264Z,14.80
2023-02-25T14:26:35.545Z,14.90
2023-02-25T14:29:35.939Z,15.00
2023-02-25T14:32:31.627Z,15.00
2023-02-25T14:35:23.669Z,15.00
2023-02-25T14:38:07.662Z,15.00
2023-02-25T14:40:46.401Z,15.00
2023-02-25T14:43:33.305Z,15.00
2023-02-25T14:46:15.906Z,15.00
2023-02-25T14:48:51.244Z,15.00
2023-02-25T14:51:45.725Z,14.90
2023-02-25T14:54:52.209Z,14.90
2023-02-25T14:58:10.532Z,14.90
2023-02-25T15:01:11.873Z,14.90
2023-02-25T15:04:19.082Z,14.80
2023-02-25T15:07:31.185Z,14.80
2023-02-25T15:10:19.763Z,14.80
2023-02-25T15:13:25.983Z,14.80
2023-02-25T15:16:35.813Z,14.80
2023-02-25T15:19:38.038Z,14.80
2023-02-25T15:22:29.415Z,14.70
2023-02-25T15:25:38.904Z,14.70
2023-02-25T15:28:56.400Z,14.70
2023-02-25T15:31:29.921Z,14.70
2023-02-25T15:34:54.912Z,14.70
2023-02-25T15:37:36.194Z,14.60
2023-02-25T15:40:46.236Z,14.60
2023-02-25T15:43:45.378Z,14.60
2023-02-25T15:46:50.042Z,14.60
2023-02-25T15:49:31.460Z,14.60
2023-02-25T15:52:04.663Z,14.60
2023-02-25T15:54:52.319Z,14.60
2023-02-25T15:57:38.985Z,14.50
2023-02-25T16:01:01.961Z,14.50
2023-02-25T16:03:46.836Z,14.60
2023-02-25T16:06:23.673Z,14.50
2023-02-25T16:09:02.619Z,14.50
2023-02-25T16:11:39.272Z,14.40
2023-02-25T16:14:16.199Z,14.40
2023-02-25T16:16:50.870Z,14.40
2023-02-25T16:19:26.755Z,14.40
2023-02-25T16:22:00.702Z,14.30
2023-02-25T16:24:29.868Z,14.30
2023-02-25T16:27:03.168Z,14.30
2023-02-25T16:29:56.886Z,14.30
2023-02-25T16:32:40.285Z,14.30
2023-02-25T16:35:17.530Z,14.30
2023-02-25T16:37:56.632Z,14.30
2023-02-25T16:40:30.858Z,14.30
2023-02-25T16:43:00.525Z,14.30
2023-02-25T16:45:31.426Z,14.30
2023-02-25T16:48:07.040Z,14.20
2023-02-25T16:50:38.075Z,14.20
2023-02-25T16:53:06.814Z,14.20
2023-02-25T16:55:41.712Z,14.20
2023-02-25T16:58:24.204Z,14.20
2023-02-25T17:00:56.405Z,14.20
2023-02-25T17:03:30.994Z,14.10
2023-02-25T17:06:08.216Z,14.10
2023-02-25T17:08:39.787Z,14.10
2023-02-25T17:11:08.808Z,14.00
2023-02-25T17:13:42.591Z,14.00
2023-02-25T17:16:29.198Z,14.00
2023-02-25T17:19:03.995Z,14.00
2023-02-25T17:21:39.320Z,14.00
2023-02-25T17:24:33.956Z,14.00
2023-02-25T17:27:02.925Z,13.90
2023-02-25T17:29:56.826Z,13.90
2023-02-25T17:32:28.438Z,13.90
2023-02-25T17:35:02.823Z,13.90
2023-02-25T17:37:34.363Z,13.90
2023-02-25T17:40:04.409Z,13.90
2023-02-25T17:42:36.907Z,13.90
2023-02-25T17:45:47.159Z,13.90
2023-02-25T17:48:19.442Z,13.90
2023-02-25T17:50:56.385Z,13.90
2023-02-25T17:53:39.360Z,13.90
2023-02-25T17:56:28.569Z,13.80
2023-02-25T17:59:04.359Z,13.80
2023-02-25T18:01:49.026Z,13.70
2023-02-25T18:04:27.523Z,13.70
2023-02-25T18:06:56.634Z,13.60
2023-02-25T18:09:41.873Z,13.70
2023-02-25T18:12:23.607Z,13.60
2023-02-25T18:14:57.660Z,13.60
2023-02-25T18:17:29.236Z,13.60
2023-02-25T18:20:01.987Z,13.60
2023-02-25T18:22:38.078Z,13.60
2023-02-25T18:25:36.678Z,13.60
2023-02-25T18:28:07.881Z,13.60
2023-02-25T18:30:36.365Z,13.60
2023-02-25T18:33:04.901Z,13.60
2023-02-25T18:35:34.353Z,13.60
2023-02-25T18:38:04.183Z,13.60
2023-02-25T18:40:37.934Z,13.50
2023-02-25T18:43:07.259Z,13.50
2023-02-25T18:45:36.280Z,13.50
2023-02-25T18:48:05.119Z,13.50
2023-02-25T18:50:34.652Z,13.50
2023-02-25T18:53:03.588Z,13.40
2023-02-25T18:55:35.677Z,13.40
2023-02-25T18:58:04.887Z,13.40
2023-02-25T19:00:33.627Z,13.30
2023-02-25T19:03:04.872Z,13.30
2023-02-25T19:05:33.796Z,13.30
2023-02-25T19:08:02.213Z,13.30
2023-02-25T19:10:34.290Z,13.20
2023-02-25T19:13:07.244Z,13.20
2023-02-25T19:15:36.035Z,13.20
2023-02-25T19:18:05.018Z,13.20
2023-02-25T19:20:33.844Z,13.10
2023-02-25T19:23:02.488Z,13.10
2023-02-25T19:25:35.865Z,13.10
2023-02-25T19:28:07.526Z,13.10
2023-02-25T19:30:39.914Z,13.10
2023-02-25T19:33:11.109Z,13.10
2023-02-25T19:35:42.171Z,13.10
2023-02-25T19:38:16.733Z,13.10
2023-02-25T19:40:50.396Z,13.10
2023-02-25T19:43:20.256Z,13.10
2023-02-25T19:45:50.441Z,13.10
2023-02-25T19:48:19.153Z,13.10
2023-02-25T19:50:47.662Z,13.10
2023-02-25T19:53:16.182Z,13.00
2023-02-25T19:55:44.828Z,13.00
2023-02-25T19:58:13.256Z,13.10
2023-02-25T20:00:46.342Z,13.00
2023-02-25T20:03:17.904Z,13.00
2023-02-25T20:05:46.557Z,13.00
2023-02-25T20:08:15.044Z,13.00
2023-02-25T20:10:44.752Z,13.00
2023-02-25T20:13:13.447Z,13.00
2023-02-25T20:15:43.456Z,13.00
2023-02-25T20:18:12.301Z,12.90
2023-02-25T20:20:43.369Z,13.00
2023-02-25T20:23:12.088Z,12.90
2023-02-25T20:25:40.734Z,12.90
2023-02-25T20:28:09.292Z,12.90
2023-02-25T20:30:38.610Z,12.90
2023-02-25T20:33:08.458Z,12.90
2023-02-25T20:35:37.532Z,12.90
2023-02-25T20:38:28.146Z,12.90
2023-02-25T20:40:56.917Z,12.90
2023-02-25T20:43:26.008Z,12.90
2023-02-25T20:45:55.056Z,12.90
2023-02-25T20:48:32.702Z,12.90
2023-02-25T20:51:02.373Z,13.10
2023-02-25T20:53:32.436Z,13.10
2023-02-25T20:56:00.932Z,13.20
2023-02-25T20:58:29.474Z,13.20
2023-02-25T21:00:58.364Z,13.20
2023-02-25T21:03:28.271Z,13.30
2023-02-25T21:05:56.766Z,13.30
2023-02-25T21:08:25.349Z,13.30
2023-02-25T21:10:53.990Z,13.30
2023-02-25T21:13:22.523Z,13.30
2023-02-25T21:15:51.123Z,13.30
2023-02-25T21:18:19.662Z,13.30
2023-02-25T21:20:49.564Z,13.30
2023-02-25T21:23:18.017Z,13.30
2023-02-25T21:25:46.850Z,13.30
2023-02-25T21:28:15.377Z,13.30
2023-02-25T21:30:43.964Z,13.20
2023-02-25T21:33:13.128Z,13.20
2023-02-25T21:36:09.637Z,13.20
2023-02-25T21:38:39.420Z,13.20
2023-02-25T21:41:10.613Z,13.10
2023-02-25T21:43:39.872Z,13.10
2023-02-25T21:46:11.022Z,13.10
2023-02-25T21:48:40.875Z,13.20
2023-02-25T21:51:17.056Z,13.20
2023-02-25T21:53:45.802Z,13.20
2023-02-25T21:56:16.807Z,13.20
2023-02-25T21:58:45.917Z,13.20
2023-02-25T22:01:17.961Z,13.20
2023-02-25T22:03:48.055Z,13.20
2023-02-25T22:06:18.364Z,13.30
2023-02-25T22:08:47.394Z,13.30
2023-02-25T22:11:18.851Z,13.30
2023-02-25T22:13:48.140Z,13.30
2023-02-25T22:16:17.005Z,13.30
2023-02-25T22:18:46.646Z,13.30
2023-02-25T22:21:23.911Z,13.20
2023-02-25T22:23:54.901Z,13.30
2023-02-25T22:26:26.669Z,13.20
2023-02-25T22:28:57.122Z,13.20
2023-02-25T22:31:26.961Z,13.20
2023-02-25T22:33:57.751Z,13.20
2023-02-25T22:36:28.040Z,13.20
2023-02-25T22:38:56.933Z,13.20
2023-02-25T22:41:28.031Z,13.20
2023-02-25T22:43:58.781Z,13.20
2023-02-25T22:46:29.613Z,13.30
2023-02-25T22:48:58.434Z,13.30
2023-02-25T22:51:32.773Z,13.30
2023-02-25T22:54:01.756Z,13.30
2023-02-25T22:56:30.320Z,13.30
2023-02-25T22:58:59.066Z,13.20
2023-02-25T23:01:28.931Z,13.20
2023-02-25T23:03:58.628Z,13.30
2023-02-25T23:06:42.974Z,13.20
2023-02-25T23:09:12.861Z,13.30
2023-02-25T23:11:43.733Z,13.30
2023-02-25T23:14:13.593Z,13.30
2023-02-25T23:16:44.854Z,13.30
2023-02-25T23:19:17.113Z,13.30
2023-02-25T23:21:47.726Z,13.20
2023-02-25T23:24:19.392Z,13.20
2023-02-25T23:26:50.728Z,13.30
2023-02-25T23:29:19.567Z,13.30
2023-02-25T23:31:49.744Z,13.40
2023-02-25T23:34:23.150Z,13.40
2023-02-25T23:36:57.826Z,13.30
2023-02-25T23:39:27.827Z,13.40
2023-02-25T23:41:56.292Z,13.30
2023-02-25T23:44:25.234Z,13.30
2023-02-25T23:46:53.786Z,13.30
2023-02-25T23:49:22.789Z,13.30
2023-02-25T23:51:52.761Z,13.30
2023-02-25T23:54:23.865Z,13.30
2023-02-25T23:56:52.558Z,13.20
2023-02-25T23:59:24.187Z,13.30
